createdAt,value
2022-09-06T00:00:47.645Z,101175.81
2022-09-06T00:03:31.392Z,101169.78
2022-09-06T00:06:14.692Z,101169.84
2022-09-06T00:08:54.138Z,101165.56
2022-09-06T00:11:32.756Z,101166.56
2022-09-06T00:14:06.240Z,101163.94
2022-09-06T00:16:42.791Z,101165.88
2022-09-06T00:19:19.184Z,101167.28
2022-09-06T00:21:52.876Z,101171.41
2022-09-06T00:24:28.386Z,101157.28
2022-09-06T00:27:06.264Z,101164.59
2022-09-06T00:29:39.809Z,101170.06
2022-09-06T00:32:13.402Z,101175.47
2022-09-06T00:34:55.777Z,101173.88
2022-09-06T00:37:29.343Z,101171.25
2022-09-06T00:40:05.698Z,101169.50
2022-09-06T00:42:39.494Z,101168.75
2022-09-06T00:45:21.097Z,101171.56
2022-09-06T00:48:00.565Z,101168.06
2022-09-06T00:50:35.855Z,101161.88
2022-09-06T00:53:12.093Z,101162.84
2022-09-06T00:55:46.038Z,101164.72
2022-09-06T00:58:20.266Z,101164.84
2022-09-06T01:00:56.403Z,101169.34
2022-09-06T01:03:35.194Z,101170.31
2022-09-06T01:06:24.750Z,101165.81
2022-09-06T01:09:11.773Z,101164.00
2022-09-06T01:12:00.210Z,101165.81
2022-09-06T01:14:51.624Z,101169.53
2022-09-06T01:17:36.384Z,101165.31
2022-09-06T01:20:45.188Z,101160.81
2022-09-06T01:23:51.910Z,101161.88
2022-09-06T01:27:03.188Z,101166.44
2022-09-06T01:29:46.472Z,101165.00
2022-09-06T01:32:33.218Z,101159.81
2022-09-06T01:35:12.017Z,101161.81
2022-09-06T01:37:45.706Z,101158.22
2022-09-06T01:40:19.343Z,101162.72
2022-09-06T01:42:56.256Z,101155.69
2022-09-06T01:45:42.199Z,101164.59
2022-09-06T01:48:29.573Z,101168.22
2022-09-06T01:51:16.559Z,101162.94
2022-09-06T01:54:15.497Z,101146.94
2022-09-06T01:57:09.445Z,101152.44
2022-09-06T01:59:56.708Z,101158.88
2022-09-06T02:02:41.823Z,101146.50
2022-09-06T02:05:26.902Z,101151.06
2022-09-06T02:08:12.327Z,101156.41
2022-09-06T02:10:51.144Z,101156.63
2022-09-06T02:13:32.814Z,101165.56
2022-09-06T02:16:09.881Z,101165.66
2022-09-06T02:18:53.791Z,101161.25
2022-09-06T02:21:38.065Z,101161.31
2022-09-06T02:24:16.480Z,101164.97
2022-09-06T02:26:51.761Z,101172.13
2022-09-06T02:29:27.453Z,101170.41
2022-09-06T02:32:06.183Z,101162.44
2022-09-06T02:34:49.159Z,101163.44
2022-09-06T02:37:26.272Z,101159.94
2022-09-06T02:40:00.403Z,101154.66
2022-09-06T02:42:36.760Z,101154.72
2022-09-06T02:45:13.476Z,101153.00
2022-09-06T02:47:49.390Z,101150.44
2022-09-06T02:50:26.804Z,101146.06
2022-09-06T02:53:05.816Z,101148.72
2022-09-06T02:55:43.408Z,101146.16
2022-09-06T02:58:21.267Z,101147.13
2022-09-06T03:01:00.787Z,101139.19
2022-09-06T03:03:34.606Z,101146.41
2022-09-06T03:06:09.521Z,101146.00
2022-09-06T03:08:45.051Z,101147.25
2022-09-06T03:11:18.591Z,101143.72
2022-09-06T03:13:55.373Z,101145.50
2022-09-06T03:16:32.811Z,101148.22
2022-09-06T03:19:11.816Z,101152.72
2022-09-06T03:21:46.834Z,101151.94
2022-09-06T03:24:20.411Z,101150.25
2022-09-06T03:26:57.452Z,101145.94
2022-09-06T03:29:31.012Z,101151.44
2022-09-06T03:32:04.801Z,101148.91
2022-09-06T03:34:39.419Z,101141.97
2022-09-06T03:37:14.502Z,101145.69
2022-09-06T03:39:52.323Z,101143.06
2022-09-06T03:42:27.803Z,101144.03
2022-09-06T03:45:06.137Z,101141.44
2022-09-06T03:47:40.111Z,101142.50
2022-09-06T03:50:16.466Z,101141.72
2022-09-06T03:52:57.630Z,101133.84
2022-09-06T03:55:35.651Z,101135.75
2022-09-06T03:58:25.437Z,101133.16
2022-09-06T04:01:12.967Z,101135.03
2022-09-06T04:03:51.485Z,101127.09
2022-09-06T04:06:27.826Z,101131.63
2022-09-06T04:09:02.850Z,101126.28
2022-09-06T04:11:36.357Z,101130.72
2022-09-06T04:14:10.151Z,101129.88
2022-09-06T04:16:43.775Z,101133.41
2022-09-06T04:19:20.288Z,101134.34
2022-09-06T04:21:58.394Z,101135.25
2022-09-06T04:24:37.155Z,101136.16
2022-09-06T04:27:10.779Z,101141.50
2022-09-06T04:29:44.587Z,101146.03
2022-09-06T04:32:19.039Z,101145.22
2022-09-06T04:34:58.071Z,101145.78
2022-09-06T04:37:36.532Z,101152.34
2022-09-06T04:40:14.207Z,101146.16
2022-09-06T04:42:47.716Z,101148.88
2022-09-06T04:45:26.724Z,101139.94
2022-09-06T04:48:00.287Z,101143.38
2022-09-06T04:50:33.859Z,101144.09
2022-09-06T04:53:13.346Z,101139.53
2022-09-06T04:55:48.509Z,101134.06
2022-09-06T04:58:23.862Z,101138.38
2022-09-06T05:00:57.433Z,101147.03
2022-09-06T05:03:31.017Z,101143.31
2022-09-06T05:06:10.117Z,101138.69
2022-09-06T05:08:46.267Z,101142.91
2022-09-06T05:11:21.412Z,101143.56
2022-09-06T05:13:59.677Z,101136.19
2022-09-06T05:16:33.293Z,101132.31
2022-09-06T05:19:10.059Z,101139.91
2022-09-06T05:21:46.126Z,101133.28
2022-09-06T05:24:19.684Z,101136.38
2022-09-06T05:26:54.621Z,101139.44
2022-09-06T05:29:30.756Z,101133.50
2022-09-06T05:32:04.683Z,101134.72
2022-09-06T05:34:38.213Z,101133.19
2022-09-06T05:37:14.196Z,101135.16
2022-09-06T05:39:47.981Z,101129.97
2022-09-06T05:42:22.996Z,101135.50
2022-09-06T05:44:56.499Z,101133.91
2022-09-06T05:47:31.413Z,101129.44
2022-09-06T05:50:07.132Z,101138.38
2022-09-06T05:52:41.824Z,101135.78
2022-09-06T05:55:15.446Z,101146.63
2022-09-06T05:57:50.508Z,101145.84
2022-09-06T06:00:24.149Z,101142.38
2022-09-06T06:02:57.691Z,101140.66
2022-09-06T06:05:31.319Z,101152.34
2022-09-06T06:08:04.988Z,101142.53
2022-09-06T06:10:39.657Z,101140.25
2022-09-06T06:13:14.602Z,101146.09
2022-09-06T06:15:48.104Z,101142.63
2022-09-06T06:18:21.733Z,101148.88
2022-09-06T06:21:07.943Z,101135.88
2022-09-06T06:23:42.458Z,101140.88
2022-09-06T06:26:16.123Z,101137.44
2022-09-06T06:28:51.856Z,101146.44
2022-09-06T06:31:31.435Z,101146.31
2022-09-06T06:34:05.248Z,101147.22
2022-09-06T06:36:39.152Z,101147.31
2022-09-06T06:39:12.721Z,101151.78
2022-09-06T06:41:50.063Z,101151.84
2022-09-06T06:44:45.090Z,101150.53
2022-09-06T06:47:18.993Z,101147.00
2022-09-06T06:49:52.640Z,101147.50
2022-09-06T06:52:26.459Z,101148.84
2022-09-06T06:55:00.103Z,101144.63
2022-09-06T06:57:33.914Z,101135.69
2022-09-06T07:00:11.240Z,101140.09
2022-09-06T07:02:44.870Z,101141.63
2022-09-06T07:08:12.576Z,101138.00
2022-09-06T07:10:54.505Z,101148.69
2022-09-06T07:13:28.184Z,101154.06
2022-09-06T07:16:11.579Z,101147.44
2022-09-06T07:18:46.162Z,101142.84
2022-09-06T07:21:42.555Z,101155.25
2022-09-06T07:24:16.226Z,101153.81
2022-09-06T07:29:45.748Z,101158.22
2022-09-06T07:32:20.711Z,101161.34
2022-09-06T07:34:54.373Z,101158.22
2022-09-06T07:37:29.323Z,101157.78
2022-09-06T07:40:03.218Z,101156.47
2022-09-06T07:42:36.970Z,101160.78
2022-09-06T07:45:11.312Z,101156.50
2022-09-06T07:50:49.019Z,101149.56
2022-09-06T07:53:30.517Z,101155.06
2022-09-06T07:56:09.312Z,101150.31
2022-09-06T07:58:42.951Z,101152.38
2022-09-06T08:01:30.269Z,101157.56
2022-09-06T08:04:09.002Z,101154.22
2022-09-06T08:09:38.399Z,101151.81
2022-09-06T08:12:12.091Z,101151.28
2022-09-06T08:14:45.787Z,101147.53
2022-09-06T08:17:19.447Z,101152.41
2022-09-06T08:19:54.472Z,101142.38
2022-09-06T08:22:28.261Z,101154.69
2022-09-06T08:25:01.897Z,101144.69
2022-09-06T08:27:35.658Z,101138.34
2022-09-06T08:30:10.895Z,101146.19
2022-09-06T08:32:46.139Z,101145.78
2022-09-06T08:35:21.254Z,101139.47
2022-09-06T08:37:54.994Z,101141.38
2022-09-06T08:40:28.751Z,101138.63
2022-09-06T08:43:03.156Z,101143.31
2022-09-06T08:45:36.803Z,101136.72
2022-09-06T08:48:10.957Z,101128.59
2022-09-06T08:50:58.672Z,101118.31
2022-09-06T08:53:42.146Z,101120.72
2022-09-06T08:56:24.593Z,101118.38
2022-09-06T08:59:06.741Z,101114.44
2022-09-06T09:01:53.739Z,101119.97
2022-09-06T09:04:30.149Z,101121.06
2022-09-06T09:07:13.380Z,101124.50
2022-09-06T09:09:50.407Z,101111.44
2022-09-06T09:12:26.593Z,101118.47
2022-09-06T09:15:08.966Z,101106.56
2022-09-06T09:17:43.371Z,101113.09
2022-09-06T09:20:17.277Z,101117.88
2022-09-06T09:22:52.388Z,101111.91
2022-09-06T09:25:26.648Z,101111.16
2022-09-06T09:28:00.468Z,101109.53
2022-09-06T09:30:48.914Z,101108.84
2022-09-06T09:33:32.619Z,101111.00
2022-09-06T09:36:10.738Z,101108.44
2022-09-06T09:38:51.850Z,101104.19
2022-09-06T09:41:33.680Z,101108.13
2022-09-06T09:44:11.775Z,101092.38
2022-09-06T09:46:45.735Z,101096.50
2022-09-06T09:49:31.418Z,101088.63
2022-09-06T09:52:11.660Z,101093.69
2022-09-06T09:54:54.150Z,101083.13
2022-09-06T09:57:28.319Z,101087.94
2022-09-06T10:00:02.592Z,101071.63
2022-09-06T10:02:40.253Z,101069.44
2022-09-06T10:05:22.363Z,101066.56
2022-09-06T10:07:57.672Z,101062.13
2022-09-06T10:10:40.061Z,101054.88
2022-09-06T10:13:20.583Z,101050.41
2022-09-06T10:15:57.138Z,101052.63
2022-09-06T10:18:32.398Z,101048.94
2022-09-06T10:21:09.101Z,101048.66
2022-09-06T10:26:58.401Z,101051.53
2022-09-06T10:29:39.356Z,101038.03
2022-09-06T10:32:30.373Z,101037.16
2022-09-06T10:35:24.278Z,101040.50
2022-09-06T10:38:17.836Z,101044.31
2022-09-06T10:41:00.348Z,101031.91
2022-09-06T10:43:43.830Z,101027.06
2022-09-06T10:46:20.282Z,101029.38
2022-09-06T10:48:54.737Z,101029.72
2022-09-06T10:51:35.706Z,101031.44
2022-09-06T10:54:11.371Z,101022.25
2022-09-06T10:56:53.313Z,101025.72
2022-09-06T10:59:35.590Z,101019.41
2022-09-06T11:02:19.870Z,101025.03
2022-09-06T11:10:50.035Z,101013.81
2022-09-06T11:13:28.902Z,101006.19
2022-09-06T11:16:12.086Z,101007.31
2022-09-06T11:18:51.051Z,100996.91
2022-09-06T11:22:20.931Z,101000.50
2022-09-06T11:25:24.000Z,100998.16
2022-09-06T11:28:03.031Z,101002.34
2022-09-06T11:30:36.717Z,101005.72
2022-09-06T11:33:25.570Z,100997.66
2022-09-06T11:36:18.436Z,101001.94
2022-09-06T11:38:57.806Z,100994.06
2022-09-06T11:41:34.192Z,100992.13
2022-09-06T11:44:11.425Z,100994.59
2022-09-06T11:47:02.042Z,100979.84
2022-09-06T11:49:43.097Z,100981.03
2022-09-06T11:52:55.891Z,100965.50
2022-09-06T11:55:39.285Z,100965.03
2022-09-06T11:58:24.635Z,100963.38
2022-09-06T12:01:36.849Z,100957.69
2022-09-06T12:04:11.433Z,100957.22
2022-09-06T12:07:10.129Z,100960.06
2022-09-06T12:09:46.087Z,100957.31
2022-09-06T12:12:41.040Z,100955.53
2022-09-06T12:15:28.140Z,100954.72
2022-09-06T12:18:02.063Z,100953.09
2022-09-06T12:21:02.462Z,100944.25
2022-09-06T12:23:46.293Z,100940.25
2022-09-06T12:26:51.873Z,100946.06
2022-09-06T12:29:29.959Z,100945.53
2022-09-06T12:32:06.000Z,100945.44
2022-09-06T12:34:40.131Z,100940.47
2022-09-06T12:37:31.448Z,100936.31
2022-09-06T12:40:09.127Z,100933.59
2022-09-06T12:42:47.057Z,100937.56
2022-09-06T12:45:27.074Z,100930.38
2022-09-06T12:48:10.196Z,100923.84
2022-09-06T12:50:45.088Z,100924.88
2022-09-06T12:53:24.719Z,100920.00
2022-09-06T12:56:07.671Z,100921.00
2022-09-06T12:58:41.928Z,100920.19
2022-09-06T13:01:23.009Z,100913.88
2022-09-06T13:04:03.523Z,100913.59
2022-09-06T13:06:42.662Z,100918.66
2022-09-06T13:09:20.455Z,100916.06
2022-09-06T13:12:03.841Z,100915.25
2022-09-06T13:14:37.988Z,100914.44
2022-09-06T13:17:25.507Z,100912.28
2022-09-06T13:20:00.231Z,100907.75
2022-09-06T13:22:46.265Z,100902.63
2022-09-06T13:25:26.310Z,100900.41
2022-09-06T13:28:02.525Z,100893.69
2022-09-06T13:30:38.892Z,100895.59
2022-09-06T13:33:25.673Z,100892.00
2022-09-06T13:36:19.837Z,100885.44
2022-09-06T13:38:53.319Z,100890.94
2022-09-06T13:41:42.218Z,100889.91
2022-09-06T13:44:29.787Z,100892.09
2022-09-06T13:47:03.669Z,100889.66
2022-09-06T13:49:37.207Z,100899.28
2022-09-06T13:52:10.721Z,100895.38
2022-09-06T13:54:44.325Z,100899.28
2022-09-06T13:57:23.594Z,100895.97
2022-09-06T13:59:59.500Z,100886.66
2022-09-06T14:02:33.114Z,100886.06
2022-09-06T14:05:06.928Z,100885.06
2022-09-06T14:07:40.480Z,100893.91
2022-09-06T14:10:14.777Z,100884.59
2022-09-06T14:12:48.514Z,100885.44
2022-09-06T14:15:23.757Z,100878.84
2022-09-06T14:17:57.454Z,100874.81
2022-09-06T14:20:31.191Z,100869.38
2022-09-06T14:23:05.275Z,100869.91
2022-09-06T14:25:41.861Z,100863.91
2022-09-06T14:28:15.507Z,100859.72
2022-09-06T14:30:50.642Z,100861.03
2022-09-06T14:33:24.311Z,100858.44
2022-09-06T14:35:57.997Z,100855.38
2022-09-06T14:38:31.598Z,100847.28
2022-09-06T14:41:06.418Z,100843.41
2022-09-06T14:43:40.034Z,100849.97
2022-09-06T14:46:19.365Z,100845.59
2022-09-06T14:49:00.143Z,100844.19
2022-09-06T14:51:33.856Z,100844.72
2022-09-06T14:54:09.549Z,100848.25
2022-09-06T14:56:44.349Z,100841.78
2022-09-06T14:59:17.966Z,100845.03
2022-09-06T15:01:53.165Z,100838.50
2022-09-06T15:04:27.788Z,100840.03
2022-09-06T15:07:01.431Z,100837.84
2022-09-06T15:09:35.007Z,100828.03
2022-09-06T15:12:08.769Z,100824.53
2022-09-06T15:14:45.191Z,100819.75
2022-09-06T15:17:20.749Z,100822.00
2022-09-06T15:19:56.906Z,100816.97
2022-09-06T15:22:30.549Z,100823.50
2022-09-06T15:25:04.220Z,100821.03
2022-09-06T15:27:37.819Z,100818.59
2022-09-06T15:30:12.375Z,100813.41
2022-09-06T15:32:47.434Z,100809.72
2022-09-06T15:35:21.294Z,100801.56
2022-09-06T15:37:54.875Z,100801.81
2022-09-06T15:40:28.449Z,100801.22
2022-09-06T15:43:03.300Z,100805.06
2022-09-06T15:45:48.740Z,100801.63
2022-09-06T15:48:24.002Z,100802.09
2022-09-06T15:50:57.734Z,100803.47
2022-09-06T15:53:33.683Z,100812.88
2022-09-06T15:56:08.474Z,100804.84
2022-09-06T15:58:42.487Z,100813.13
2022-09-06T16:01:18.395Z,100811.78
2022-09-06T16:03:55.572Z,100812.56
2022-09-06T16:06:29.404Z,100808.63
2022-09-06T16:09:05.427Z,100802.84
2022-09-06T16:11:40.928Z,100811.38
2022-09-06T16:14:16.476Z,100807.28
2022-09-06T16:16:53.983Z,100800.41
2022-09-06T16:19:29.278Z,100807.94
2022-09-06T16:22:03.163Z,100802.00
2022-09-06T16:24:37.246Z,100798.94
2022-09-06T16:27:11.139Z,100798.59
2022-09-06T16:29:45.504Z,100796.22
2022-09-06T16:32:19.219Z,100802.88
2022-09-06T16:34:54.586Z,100799.53
2022-09-06T16:37:40.219Z,100800.91
2022-09-06T16:40:14.617Z,100800.44
2022-09-06T16:42:48.657Z,100801.75
2022-09-06T16:45:23.894Z,100805.69
2022-09-06T16:47:57.632Z,100804.34
2022-09-06T16:50:32.875Z,100796.69
2022-09-06T16:53:06.587Z,100794.34
2022-09-06T16:55:40.498Z,100795.72
2022-09-06T16:58:16.282Z,100799.16
2022-09-06T17:00:49.853Z,100797.75
2022-09-06T17:03:23.656Z,100793.81
2022-09-06T17:05:59.021Z,100787.13
2022-09-06T17:08:36.572Z,100786.84
2022-09-06T17:11:12.770Z,100789.16
2022-09-06T17:13:50.062Z,100792.47
2022-09-06T17:16:41.547Z,100787.75
2022-09-06T17:19:15.341Z,100784.25
2022-09-06T17:21:50.944Z,100786.91
2022-09-06T17:24:25.140Z,100783.16
2022-09-06T17:26:58.762Z,100779.41
2022-09-06T17:29:33.223Z,100780.94
2022-09-06T17:32:10.430Z,100794.31
2022-09-06T17:34:45.438Z,100797.41
2022-09-06T17:37:20.877Z,100794.41
2022-09-06T17:39:54.764Z,100802.22
2022-09-06T17:42:28.971Z,100795.56
2022-09-06T17:45:02.839Z,100797.69
2022-09-06T17:47:37.048Z,100798.91
2022-09-06T17:50:15.935Z,100798.50
2022-09-06T17:52:53.908Z,100805.31
2022-09-06T17:55:29.589Z,100805.72
2022-09-06T17:58:03.702Z,100805.19
2022-09-06T18:00:41.033Z,100801.19
2022-09-06T18:03:14.960Z,100804.34
2022-09-06T18:05:48.847Z,100801.06
2022-09-06T18:08:24.053Z,100806.91
2022-09-06T18:10:58.158Z,100810.91
2022-09-06T18:13:32.248Z,100801.34
2022-09-06T18:16:07.180Z,100804.41
2022-09-06T18:18:41.934Z,100802.13
2022-09-06T18:21:16.905Z,100812.34
2022-09-06T18:23:52.773Z,100808.16
2022-09-06T18:26:27.662Z,100809.31
2022-09-06T18:29:02.242Z,100817.81
2022-09-06T18:31:36.226Z,100822.78
2022-09-06T18:34:10.507Z,100820.50
2022-09-06T18:36:44.642Z,100826.28
2022-09-06T18:39:20.680Z,100821.22
2022-09-06T18:42:07.328Z,100816.13
2022-09-06T18:44:41.172Z,100821.84
2022-09-06T18:47:14.862Z,100820.41
2022-09-06T18:49:51.347Z,100821.69
2022-09-06T18:52:25.275Z,100815.78
2022-09-06T18:55:00.907Z,100823.22
2022-09-06T18:57:34.878Z,100814.69
2022-09-06T19:00:09.985Z,100824.03
2022-09-06T19:02:44.191Z,100819.88
2022-09-06T19:05:18.137Z,100820.16
2022-09-06T19:07:52.133Z,100819.59
2022-09-06T19:10:27.651Z,100824.44
2022-09-06T19:13:01.580Z,100823.84
2022-09-06T19:15:35.625Z,100816.16
2022-09-06T19:18:12.478Z,100814.81
2022-09-06T19:20:47.040Z,100815.09
2022-09-06T19:23:24.381Z,100819.16
2022-09-06T19:26:00.986Z,100815.94
2022-09-06T19:28:38.716Z,100818.97
2022-09-06T19:31:15.930Z,100818.44
2022-09-06T19:33:51.448Z,100813.44
2022-09-06T19:36:27.494Z,100814.78
2022-09-06T19:39:04.499Z,100812.47
2022-09-06T19:41:43.157Z,100803.91
2022-09-06T19:44:21.029Z,100806.88
2022-09-06T19:46:55.475Z,100800.81
2022-09-06T19:49:30.957Z,100797.53
2022-09-06T19:52:09.788Z,100799.50
2022-09-06T19:54:44.124Z,100789.88
2022-09-06T19:57:19.943Z,100795.63
2022-09-06T19:59:53.648Z,100798.50
2022-09-06T20:02:27.731Z,100808.69
2022-09-06T20:05:02.184Z,100804.63
2022-09-06T20:07:35.955Z,100800.47
2022-09-06T20:10:10.573Z,100799.84
2022-09-06T20:12:48.399Z,100798.41
2022-09-06T20:15:22.246Z,100801.47
2022-09-06T20:17:56.046Z,100791.03
2022-09-06T20:20:30.080Z,100794.97
2022-09-06T20:23:05.108Z,100796.19
2022-09-06T20:25:39.172Z,100796.44
2022-09-06T20:28:14.760Z,100802.00
2022-09-06T20:30:49.967Z,100795.00
2022-09-06T20:33:25.053Z,100800.72
2022-09-06T20:35:59.857Z,100795.69
2022-09-06T20:38:35.210Z,100795.09
2022-09-06T20:41:13.082Z,100801.50
2022-09-06T20:43:55.928Z,100793.75
2022-09-06T20:46:35.385Z,100798.63
2022-09-06T20:49:09.413Z,100796.19
2022-09-06T20:51:43.462Z,100798.25
2022-09-06T20:54:19.509Z,100793.97
2022-09-06T20:56:55.347Z,100802.28
2022-09-06T20:59:31.228Z,100802.44
2022-09-06T21:02:08.108Z,100804.44
2022-09-06T21:04:44.416Z,100803.75
2022-09-06T21:07:18.182Z,100806.69
2022-09-06T21:09:51.449Z,100806.28
2022-09-06T21:12:25.267Z,100800.88
2022-09-06T21:15:00.256Z,100798.50
2022-09-06T21:17:33.829Z,100796.91
2022-09-06T21:20:08.226Z,100796.16
2022-09-06T21:22:42.017Z,100792.00
2022-09-06T21:25:15.713Z,100799.31
2022-09-06T21:27:52.647Z,100788.25
2022-09-06T21:30:30.175Z,100789.88
2022-09-06T21:33:03.754Z,100797.22
2022-09-06T21:35:37.426Z,100801.00
2022-09-06T21:38:10.638Z,100801.47
2022-09-06T21:40:44.726Z,100795.78
2022-09-06T21:43:18.302Z,100791.53
2022-09-06T21:45:53.472Z,100783.63
2022-09-06T21:48:27.456Z,100783.81
2022-09-06T21:51:01.010Z,100788.38
2022-09-06T21:53:34.848Z,100787.75
2022-09-06T21:56:08.674Z,100786.09
2022-09-06T21:58:41.909Z,100780.25
2022-09-06T22:01:17.631Z,100785.38
2022-09-06T22:03:52.027Z,100779.31
2022-09-06T22:06:29.025Z,100774.94
2022-09-06T22:09:07.969Z,100777.78
2022-09-06T22:11:43.628Z,100770.78
2022-09-06T22:14:17.778Z,100775.44
2022-09-06T22:16:53.824Z,100771.97
2022-09-06T22:19:28.050Z,100780.09
2022-09-06T22:22:02.186Z,100781.97
2022-09-06T22:24:36.454Z,100775.84
2022-09-06T22:27:10.622Z,100778.69
2022-09-06T22:29:44.694Z,100774.38
2022-09-06T22:32:21.594Z,100771.84
2022-09-06T22:34:55.616Z,100776.50
2022-09-06T22:37:29.772Z,100774.81
2022-09-06T22:40:04.329Z,100774.97
2022-09-06T22:42:38.531Z,100772.38
2022-09-06T22:45:12.778Z,100772.47
2022-09-06T22:47:49.810Z,100770.81
2022-09-06T22:50:23.890Z,100770.09
2022-09-06T22:52:57.996Z,100774.72
2022-09-06T22:55:32.916Z,100778.59
2022-09-06T22:58:08.074Z,100778.81
2022-09-06T23:00:42.721Z,100786.06
2022-09-06T23:03:18.306Z,100774.59
2022-09-06T23:05:52.461Z,100784.59
2022-09-06T23:08:26.560Z,100784.75
2022-09-06T23:11:07.208Z,100785.78
2022-09-06T23:13:44.225Z,100777.91
2022-09-06T23:16:20.209Z,100781.66
2022-09-06T23:18:56.547Z,100778.25
2022-09-06T23:21:30.599Z,100776.50
2022-09-06T23:24:04.968Z,100772.19
2022-09-06T23:26:42.038Z,100766.09
2022-09-06T23:29:16.062Z,100767.13
2022-09-06T23:31:50.491Z,100766.44
2022-09-06T23:34:26.040Z,100759.66
2022-09-06T23:37:00.696Z,100759.78
2022-09-06T23:39:34.822Z,100761.75
2022-09-06T23:42:09.217Z,100762.81
2022-09-06T23:44:43.217Z,100760.28
2022-09-06T23:47:17.276Z,100755.91
2022-09-06T23:49:52.753Z,100752.41
2022-09-06T23:52:27.382Z,100748.94
2022-09-06T23:55:01.481Z,100742.78
2022-09-06T23:57:35.542Z,100740.31
